West Easton, Pennsylvania
Current Conditions -  °F | °C
As of 7:51 AM on Thursday 30 Oct 2014 (Local Time) from KABE Reporting Station
Haze Haze  
Wind Chill: 33°   Ceiling: Unl
Heat Index: 37°   Visibility: 6mi
Dew Point: 36°   Wind: 5mph
Humidity: 96%   Direction: 220°SW
Pressure: 30.02"   Gusts: NA
Location:  40.6369°N, 75.2272°W
Report Text: KABE 301151Z 22004KT 6SM BR CLR 03/02 A3002 RMK AO2 SLP166 70004 T00280022 10078 20022 53017
Loading
Personal Weather Stations






























Interactive Weather Map
Tropical Storm Tracking
New forecast layout! Learn more

10-Day Weather Forecast

Advertisements
Track Severe Weather on mobile